Dyess Air Force Base
KDYS : now visible

Airfield :











YOU CAN JOIN US ON...

 
LOGIN :

Register | Disclaimer

   EN    FR    IT 

 









Legend :    VFR   Marginal VFR   IFR   Intensive IFR   Very Intensive IFR
Visi :
Ceiling :
>= 8 km
>= 3000ft
5 to 8 km
1000 to 3000 ft
1500m to 5 km
500 to 1000 ft
800 to 1500m
200 to 500 ft
< 800m
< 200 ft
Symbols :   Thunderstorms  Fog  Heavy snow  Heavy precipitations  Wind > 20 kt






- Airport Elevation : 1789 ft


KDYS - Dyess Air Force Base

CURRENT METAR :
  • 170255Z AUTO 12016KT 10SM CLR 30/20 A2978 RMK AO2 SLP056 T02990195 53011

EXPIRED METARs :
  • 170155Z AUTO 12015KT 10SM CLR 31/20 A2976 RMK AO2 SLP048 T03120198
  • 170055Z AUTO 13018KT 10SM CLR 33/18 A2975 RMK AO2 SLP044 T03250183
  • 162355Z AUTO 14018G23KT 10SM CLR 33/19 A2974 RMK AO2 SLP041 T03340187 10345 20310 57017

TAF AMD TAF KDYS
Valid from the 16 at 21:00 until the 17 at 22:00 UTC


162145Z 1621/1722 15015G25KT 9999 SCT050 QNH2973INS
BECMG 1700/1701 15012G18KT 9999 SCT080 QNH2976INS
BECMG 1713/1714 17015G25KT 9999 SCT080 QNH2967INS TX36/1622Z TN23/1712Z LAST NO AMDS AFT 1622 NEXT 1711
KZFW FIR / North America



MET'MAP, your aeronautical weather chart ! - Copyright ORBIFLY December 2007 - Disclaimer

ORBIFLY MET'MAP TEAM :

Programming & Development : Alexandra Zaïnal
Original concept : Baudouin d'Aumeries
Technical & hardware support : Manuel Goepfert
Assistance : Marc-Olivier Méhu




SOURCES & CREDITS :

   NOAA       Earth
Advisory